Terminal Aerodrome Forecast
Issued by NWS Blacksburg, VA

Home | Current Version | Previous Version | Text Only | Print | Product List | Glossary On
Versions: 1 2 3 4 5 6 7 8 9 10 11 12 13 14 15 16 17 18 19
000
FTUS41 KRNK 200531
TAFBLF
TAF
KBLF 200531Z 2006/2106 29011G21KT P6SM OVC020
     FM200700 29010KT P6SM SCT025
     FM201400 26008KT P6SM SKC
     FM202200 25005KT P6SM SCT250=

USA.gov is the U.S. government's official web portal to all federal, state and local government web resources and services.